map of BIO home
BIO - Airport
Location
City:  Bilbao, Basque Country, Spain
Name:Sondica
ICAO:LEBB
IATA:BIO

Details
Type:Airport (Aerodrome, Airfield)
Use:Public/Civil
Latitude:4318'04"N (43.301097)
Longitude:254'38"W (-2.910607)
Datum:WGS 1984
Elevation:138 ft (42 m)
Variation:0.49W (WMM2015 magnetic declination)
0.13 annual change
Runways:2
Longest:8530 × 148 ft (2600 × 45 m), paved

Time
Time Zone:UTC+1 (DST+2)
Local Time:

Weather
METAR:LEBB 162130Z 18003KT 130V210 9999 OVC029 09/04 Q1018 NOSIG
TAF:LEBB 161700Z 1618/1718 VRB05KT 9999 BKN030 TX11/1715Z TN04/1706Z
TEMPO 1618/1620 28010KT
TEMPO 1620/1718 3000 RA BKN010 PROB30
TEMPO 1621/1708 1500 -RA BCFG BKN005 BKN010

Related Locations
Nearby:
Farthest:NZFT: 12278 mi / 19759 km
Flat Point, WGN, NZ

Find:

   beyond  
but within

Other Information
Maps:
NOTAMs:
Links:
Sources:

  
  • flag of Spain
  • flag of Basque Country
  • flag of Bilbao
  

Sectional Chart

Flight Planning
at skyvector.com

Satellite Image

Google Maps Satellite view

 

Copyright © 2004-2019 Karl L. Swartz. All rights reserved.
The Great Circle Mapper name and logo are trademarks of the Great Circle Mapper.
All other trademarks mentioned herein belong to their respective owners.
Please see credits for attibutions and further copyright information.

  Follow gcmap on Facebook Follow gcmap on Twitter Follow gcmap on Google+ GCmap on LinkedIn

hCard Microformat

Geo Microformat